Time;durP1;ratioP1;P1;durP2;ratioP2;P2;SDS_P1;SDS_P2;PMS_P1;PMS_P2;Temp;Humidity;BMP_temperature;BMP_pressure;BME280_temperature;BME280_humidity;BME280_pressure;Samples;Min_cycle;Max_cycle;Signal;HPM_P1;HPM_P2
2021/05/02 00:01:04;;;;;;;91.02;47.45;;;;;;;9.82;70.45;99569.13;147450;1147;104505;-78
2021/05/02 00:04:07;;;;;;;45.33;25.53;;;;;;;9.83;69.98;99562.81;147663;1148;104892;-79
2021/05/02 00:07:11;;;;;;;33.75;23.32;;;;;;;9.89;70.25;99555.14;147728;1147;104591;-77
2021/05/02 00:10:15;;;;;;;101.95;56.42;;;;;;;9.90;70.36;99546.16;147726;1147;104491;-79
2021/05/02 00:13:19;;;;;;;106.97;59.30;;;;;;;9.88;70.02;99558.81;147896;1147;105015;-80
2021/05/02 00:16:23;;;;;;;73.55;41.10;;;;;;;9.87;69.94;99578.45;147733;1147;104496;-81
2021/05/02 00:19:26;;;;;;;129.40;62.50;;;;;;;9.83;70.88;99576.14;147347;1147;104531;-81
2021/05/02 00:22:29;;;;;;;166.65;80.75;;;;;;;9.78;70.50;99567.80;147303;1146;104572;-77
2021/05/02 00:25:33;;;;;;;126.82;65.52;;;;;;;9.77;69.98;99563.45;147604;1147;104550;-78
2021/05/02 00:28:43;;;;;;;62.87;34.73;;;;;;;9.69;69.99;99551.97;147713;1147;104513;-77
2021/05/02 00:31:49;;;;;;;128.20;58.55;;;;;;;9.68;70.20;99559.14;147739;1147;104518;-78
2021/05/02 00:34:54;;;;;;;112.00;56.45;;;;;;;9.69;70.32;99557.30;147557;1147;104380;-77
2021/05/02 00:37:57;;;;;;;128.87;63.17;;;;;;;9.74;70.19;99565.64;147746;1147;104478;-79
2021/05/02 00:41:04;;;;;;;61.83;34.20;;;;;;;9.77;69.99;99575.95;147358;1148;104543;-80
2021/05/02 00:44:13;;;;;;;48.28;29.57;;;;;;;9.78;70.03;99580.30;147755;1148;104602;-80
2021/05/02 00:47:19;;;;;;;51.35;30.45;;;;;;;9.77;70.18;99573.28;147787;1148;104632;-80
2021/05/02 00:50:28;;;;;;;43.75;26.93;;;;;;;9.74;70.04;99563.80;147721;1147;104481;-80
2021/05/02 00:53:46;;;;;;;43.70;27.45;;;;;;;9.70;70.23;99559.80;147711;1147;104461;-78
2021/05/02 00:57:01;;;;;;;40.48;23.18;;;;;;;9.69;70.34;99554.63;147497;1147;104473;-79
2021/05/02 01:00:07;;;;;;;26.75;17.05;;;;;;;9.62;70.00;99547.30;147597;1148;104634;-79
2021/05/02 01:03:11;;;;;;;48.80;29.65;;;;;;;9.60;69.80;99532.47;147756;1147;104570;-82
2021/05/02 01:06:17;;;;;;;40.12;26.15;;;;;;;9.60;69.81;99516.48;147413;1147;104566;-81
2021/05/02 01:09:24;;;;;;;36.30;24.17;;;;;;;9.65;70.56;99505.35;147514;1147;104448;-79
2021/05/02 01:12:30;;;;;;;33.80;21.62;;;;;;;9.63;70.85;99497.52;147719;1147;104554;-79
2021/05/02 01:15:34;;;;;;;28.57;20.55;;;;;;;9.53;70.01;99500.34;147709;1147;104628;-78
2021/05/02 01:18:39;;;;;;;50.45;32.40;;;;;;;9.44;70.26;99486.17;147752;1147;104460;-77
2021/05/02 01:21:43;;;;;;;55.33;34.27;;;;;;;9.41;69.89;99486.52;147573;1147;104575;-82
2021/05/02 01:24:48;;;;;;;56.60;31.30;;;;;;;9.39;70.56;99491.18;147693;1146;104569;-78
2021/05/02 01:27:54;;;;;;;44.48;26.30;;;;;;;9.43;70.36;99483.70;147785;1147;104547;-82
2021/05/02 01:30:59;;;;;;;37.83;24.57;;;;;;;9.46;70.66;99472.70;147851;1147;104604;-77
2021/05/02 01:34:03;;;;;;;78.55;45.33;;;;;;;9.50;70.13;99473.20;147791;1147;104555;-80
2021/05/02 01:37:06;;;;;;;34.20;22.82;;;;;;;9.53;69.96;99462.23;147771;1147;104563;-79
2021/05/02 01:40:12;;;;;;;35.35;24.27;;;;;;;9.57;70.35;99456.40;147704;1147;104476;-77
2021/05/02 01:43:15;;;;;;;46.68;29.15;;;;;;;9.57;70.30;99451.07;147767;1148;104500;-78
2021/05/02 01:46:26;;;;;;;49.67;32.53;;;;;;;9.55;70.17;99447.74;147723;1147;104654;-78
2021/05/02 01:49:30;;;;;;;32.70;23.30;;;;;;;9.54;70.30;99447.91;147798;1147;104566;-77
2021/05/02 01:52:35;;;;;;;25.00;17.60;;;;;;;9.48;69.86;99440.58;147624;1148;104553;-81
2021/05/02 01:55:39;;;;;;;57.37;31.83;;;;;;;9.48;70.15;99443.25;147731;1148;104481;-82
2021/05/02 01:58:45;;;;;;;27.17;18.50;;;;;;;9.47;70.39;99436.24;147662;1147;104473;-82
2021/05/02 02:01:48;;;;;;;24.05;17.87;;;;;;;9.49;70.54;99407.61;147660;1147;104535;-78
2021/05/02 02:04:56;;;;;;;25.60;18.55;;;;;;;9.50;69.97;99410.12;147750;1147;104529;-80
2021/05/02 02:08:01;;;;;;;28.30;18.87;;;;;;;9.51;69.93;99397.66;147703;1147;104579;-77
2021/05/02 02:11:04;;;;;;;43.73;28.87;;;;;;;9.46;70.23;99402.64;147782;1147;104569;-83
2021/05/02 02:14:08;;;;;;;34.95;23.18;;;;;;;9.41;70.17;99395.14;147691;1147;104578;-79
2021/05/02 02:17:11;;;;;;;30.85;22.05;;;;;;;9.33;70.14;99373.84;147723;1148;105001;-80
2021/05/02 02:20:16;;;;;;;29.70;19.73;;;;;;;9.22;70.44;99359.88;147821;1147;104491;-75
2021/05/02 02:23:21;;;;;;;29.80;19.07;;;;;;;9.16;70.64;99354.38;147744;1147;104908;-74
2021/05/02 02:26:29;;;;;;;26.85;18.85;;;;;;;9.14;70.35;99346.58;147724;1147;104482;-83
2021/05/02 02:29:32;;;;;;;39.35;26.60;;;;;;;9.12;70.18;99339.73;147777;1148;104567;-80
2021/05/02 02:32:42;;;;;;;32.97;23.17;;;;;;;9.07;70.61;99315.48;147700;1147;104601;-78
2021/05/02 02:35:52;;;;;;;30.60;21.00;;;;;;;9.00;71.00;99301.98;147696;1147;104566;-78
2021/05/02 02:38:55;;;;;;;41.10;28.98;;;;;;;8.93;70.57;99300.98;147621;1147;104509;-79
2021/05/02 02:42:02;;;;;;;28.83;21.20;;;;;;;8.87;70.65;99302.47;147665;1147;104943;-78
2021/05/02 02:45:08;;;;;;;31.15;20.60;;;;;;;8.78;71.53;99301.66;147389;1147;104572;-78
2021/05/02 02:48:12;;;;;;;29.67;18.25;;;;;;;8.76;71.28;99297.50;147441;1147;104617;-79
2021/05/02 02:51:18;;;;;;;32.38;21.07;;;;;;;8.73;70.93;99281.86;147229;1147;104525;-80
2021/05/02 02:54:23;;;;;;;32.23;21.43;;;;;;;8.72;71.03;99274.87;147326;1148;104447;-80
2021/05/02 02:57:28;;;;;;;35.23;23.73;;;;;;;8.73;70.91;99289.84;147787;1147;104439;-76
2021/05/02 03:00:34;;;;;;;38.45;25.35;;;;;;;8.70;71.24;99284.84;147772;1147;104449;-79
2021/05/02 03:03:41;;;;;;;45.15;30.65;;;;;;;8.68;70.97;99276.20;147770;1147;104623;-78
2021/05/02 03:06:45;;;;;;;34.10;23.90;;;;;;;8.68;70.91;99281.52;147779;1147;104550;-77
2021/05/02 03:09:50;;;;;;;36.63;22.80;;;;;;;8.68;70.97;99271.73;147469;1147;104451;-80
2021/05/02 03:12:57;;;;;;;32.83;21.80;;;;;;;8.71;71.69;99275.88;147359;1147;104563;-78
2021/05/02 03:16:02;;;;;;;29.33;20.87;;;;;;;8.76;71.65;99269.07;147489;1148;104480;-78
2021/05/02 03:19:12;;;;;;;41.15;25.65;;;;;;;8.83;71.31;99269.22;147753;1147;104614;-77
2021/05/02 03:22:26;;;;;;;31.97;21.97;;;;;;;8.86;70.92;99263.58;147790;1147;104556;-80
2021/05/02 03:25:33;;;;;;;37.15;25.50;;;;;;;8.85;71.42;99269.89;147771;1147;104557;-79
2021/05/02 03:28:40;;;;;;;29.15;21.25;;;;;;;8.85;71.32;99269.89;147663;1147;104539;-80
2021/05/02 03:31:48;;;;;;;26.12;18.12;;;;;;;8.86;71.51;99266.24;147732;1147;104493;-78
2021/05/02 03:34:56;;;;;;;29.92;19.50;;;;;;;8.89;71.26;99268.59;147713;1147;104978;-77
2021/05/02 03:38:10;;;;;;;25.82;18.60;;;;;;;8.96;71.30;99271.39;147737;1147;104558;-81
2021/05/02 03:41:14;;;;;;;24.83;18.33;;;;;;;9.02;70.68;99273.38;147838;1147;104467;-80
2021/05/02 03:44:17;;;;;;;27.03;19.73;;;;;;;9.06;71.15;99276.55;147724;1148;104818;-78
2021/05/02 03:47:21;;;;;;;27.60;20.88;;;;;;;9.09;70.60;99268.23;147447;1147;104481;-84
2021/05/02 03:50:24;;;;;;;26.05;19.05;;;;;;;9.06;71.29;99265.90;147712;1147;104631;-77
2021/05/02 03:53:27;;;;;;;24.95;18.25;;;;;;;8.99;71.09;99255.11;147616;1147;104492;-75
2021/05/02 03:56:35;;;;;;;26.10;18.10;;;;;;;8.95;71.48;99238.64;147735;1147;105002;-75
2021/05/02 03:59:38;;;;;;;26.23;16.90;;;;;;;8.98;71.30;99222.33;147697;1147;104588;-74
2021/05/02 04:02:41;;;;;;;29.12;22.05;;;;;;;9.04;71.04;99227.00;147454;1147;104581;-76
2021/05/02 04:05:44;;;;;;;25.95;19.30;;;;;;;9.10;71.09;99227.30;147208;1147;104604;-81
2021/05/02 04:08:47;;;;;;;26.50;19.55;;;;;;;9.06;71.67;99215.34;147314;1148;104477;-82
2021/05/02 04:11:50;;;;;;;27.67;19.23;;;;;;;9.03;71.46;99217.34;147740;1147;104562;-80
2021/05/02 04:14:53;;;;;;;32.77;22.93;;;;;;;9.01;70.73;99214.02;147352;1147;104505;-78
2021/05/02 04:17:56;;;;;;;25.60;19.13;;;;;;;9.01;71.24;99195.39;147463;1147;104472;-81
2021/05/02 04:20:59;;;;;;;34.43;20.70;;;;;;;9.02;71.45;99197.04;147733;1147;104535;-76
2021/05/02 04:24:04;;;;;;;20.60;13.87;;;;;;;9.03;71.74;99190.73;147669;1147;104531;-73
2021/05/02 04:27:08;;;;;;;24.20;17.02;;;;;;;9.11;71.44;99175.76;147634;1147;104484;-81
2021/05/02 04:30:13;;;;;;;28.85;19.67;;;;;;;9.13;71.33;99153.28;147740;1148;104479;-78
2021/05/02 04:33:16;;;;;;;28.12;20.10;;;;;;;9.17;71.21;99162.58;147736;1147;104569;-82
2021/05/02 04:36:19;;;;;;;23.95;16.73;;;;;;;9.19;71.43;99171.23;147575;1147;104556;-79
2021/05/02 04:39:23;;;;;;;23.10;15.85;;;;;;;9.21;71.10;99176.38;147683;1148;104901;-78
2021/05/02 04:42:26;;;;;;;21.30;15.58;;;;;;;9.22;71.52;99176.22;147611;1147;104499;-81
2021/05/02 04:45:29;;;;;;;18.67;12.80;;;;;;;9.24;71.28;99166.23;147772;1147;104477;-80
2021/05/02 04:48:32;;;;;;;16.47;11.93;;;;;;;9.30;71.01;99169.22;147724;1147;104575;-78
2021/05/02 04:51:35;;;;;;;19.17;13.10;;;;;;;9.36;71.17;99168.52;147652;1148;104732;-81
2021/05/02 04:54:38;;;;;;;17.92;13.53;;;;;;;9.39;71.14;99155.70;147768;1147;104627;-81
2021/05/02 04:57:42;;;;;;;18.43;14.13;;;;;;;9.43;71.00;99138.38;147457;1147;104444;-82
2021/05/02 05:00:45;;;;;;;20.60;15.30;;;;;;;9.44;71.11;99140.02;147783;1147;104397;-82
2021/05/02 05:03:48;;;;;;;19.87;14.10;;;;;;;9.44;70.97;99142.69;148147;1147;104947;-80
2021/05/02 05:06:54;;;;;;;17.03;13.20;;;;;;;9.42;71.38;99139.36;147684;1147;104492;-77
2021/05/02 05:09:57;;;;;;;18.10;11.70;;;;;;;9.44;71.46;99148.01;147653;1147;104578;-76
2021/05/02 05:13:00;;;;;;;18.05;12.25;;;;;;;9.48;71.32;99139.69;147691;1147;104496;-79
2021/05/02 05:16:04;;;;;;;17.30;14.00;;;;;;;9.49;71.54;99128.87;147746;1147;104598;-80
2021/05/02 05:19:07;;;;;;;16.82;12.75;;;;;;;9.52;71.48;99131.16;147741;1146;105004;-76
2021/05/02 05:22:10;;;;;;;17.27;12.95;;;;;;;9.52;71.56;99115.19;147756;1148;104618;-74
2021/05/02 05:25:14;;;;;;;16.03;13.27;;;;;;;9.50;71.38;99089.75;147691;1148;104555;-78
2021/05/02 05:28:17;;;;;;;18.20;13.30;;;;;;;9.50;71.56;99084.42;147719;1147;104523;-75
2021/05/02 05:31:20;;;;;;;15.63;11.00;;;;;;;9.47;71.45;99077.63;147715;1147;104473;-75
2021/05/02 05:34:23;;;;;;;16.82;11.73;;;;;;;9.50;71.44;99063.94;147727;1147;104467;-77
2021/05/02 05:37:26;;;;;;;18.90;13.10;;;;;;;9.56;71.31;99057.08;147176;1147;104748;-78
2021/05/02 05:40:30;;;;;;;18.95;12.70;;;;;;;9.56;71.93;99044.59;147711;1147;104492;-75
2021/05/02 05:43:33;;;;;;;15.72;12.43;;;;;;;9.54;71.54;99043.12;147637;1148;104435;-76
2021/05/02 05:46:36;;;;;;;25.45;16.32;;;;;;;9.58;71.68;99036.43;147717;1147;104588;-76
2021/05/02 05:49:40;;;;;;;16.80;12.73;;;;;;;9.60;71.84;99035.27;147686;1147;104569;-74
2021/05/02 05:52:45;;;;;;;17.23;11.75;;;;;;;9.59;72.10;99035.44;147335;1147;104629;-75
2021/05/02 05:55:48;;;;;;;15.70;10.90;;;;;;;9.59;71.38;99024.78;147803;1147;104599;-77
2021/05/02 05:58:51;;;;;;;17.48;12.82;;;;;;;9.63;72.04;99010.11;147753;1148;104481;-75
2021/05/02 06:01:54;;;;;;;15.15;12.13;;;;;;;9.62;71.79;98992.45;147667;1147;104560;-75
2021/05/02 06:04:57;;;;;;;17.40;12.85;;;;;;;9.64;72.06;98974.46;147742;1147;104569;-74
2021/05/02 06:08:00;;;;;;;19.27;13.40;;;;;;;9.67;72.15;98967.97;147771;1147;105008;-75
2021/05/02 06:11:03;;;;;;;18.23;14.05;;;;;;;9.69;72.16;98949.97;147672;1147;104561;-77
2021/05/02 06:14:08;;;;;;;17.23;11.48;;;;;;;9.68;72.15;98938.50;147681;1147;104480;-76
2021/05/02 06:17:11;;;;;;;15.93;11.27;;;;;;;9.77;71.96;98924.08;147765;1147;105014;-75
2021/05/02 06:20:14;;;;;;;18.05;13.05;;;;;;;9.87;72.02;98907.83;147746;1148;104487;-79
2021/05/02 06:23:19;;;;;;;18.67;13.70;;;;;;;9.93;71.67;98898.28;147700;1147;104601;-81
2021/05/02 06:26:23;;;;;;;15.70;12.85;;;;;;;10.01;72.11;98884.90;147743;1147;104575;-77
2021/05/02 06:29:26;;;;;;;16.25;13.20;;;;;;;10.07;71.70;98886.82;147746;1147;104536;-82
2021/05/02 06:32:29;;;;;;;18.30;13.28;;;;;;;10.09;71.62;98883.98;147534;1147;104885;-74
2021/05/02 06:35:32;;;;;;;16.63;11.70;;;;;;;10.06;71.60;98876.34;147721;1147;104458;-73
2021/05/02 06:38:36;;;;;;;14.45;10.95;;;;;;;10.08;71.63;98859.14;147722;1146;104611;-75
2021/05/02 06:41:44;;;;;;;16.87;13.55;;;;;;;10.11;71.76;98861.45;147802;1147;104482;-77
2021/05/02 06:44:47;;;;;;;18.75;14.28;;;;;;;10.13;71.84;98847.95;147738;1147;104564;-76
2021/05/02 06:47:50;;;;;;;18.93;13.07;;;;;;;10.14;71.16;98845.11;147676;1148;104569;-75
2021/05/02 06:50:53;;;;;;;19.17;16.03;;;;;;;10.18;71.92;98833.06;147479;1148;104546;-77
2021/05/02 06:53:57;;;;;;;23.57;17.10;;;;;;;10.19;71.92;98807.22;147548;1147;104586;-74
2021/05/02 06:57:00;;;;;;;21.90;15.20;;;;;;;10.16;71.96;98797.77;147795;1147;104553;-79
2021/05/02 07:00:05;;;;;;;18.03;12.93;;;;;;;10.18;71.88;98794.89;147701;1147;104482;-77
2021/05/02 07:03:09;;;;;;;19.57;14.30;;;;;;;10.26;71.90;98796.63;147566;1147;104963;-79
2021/05/02 07:06:12;;;;;;;31.42;19.60;;;;;;;10.28;71.64;98781.30;147614;1147;104474;-78
2021/05/02 07:09:15;;;;;;;20.82;15.18;;;;;;;10.34;71.61;98777.91;147714;1147;104551;-79
2021/05/02 07:12:20;;;;;;;21.80;14.03;;;;;;;10.35;71.74;98779.55;147211;1146;104896;-74
2021/05/02 07:15:24;;;;;;;20.43;13.83;;;;;;;10.32;72.35;98763.94;147373;1148;104601;-78
2021/05/02 07:18:31;;;;;;;17.37;12.25;;;;;;;10.27;71.63;98763.63;148906;1147;104546;-78
2021/05/02 07:21:34;;;;;;;16.97;11.90;;;;;;;10.24;71.94;98767.52;147316;1147;104595;-74
2021/05/02 07:24:37;;;;;;;16.93;12.73;;;;;;;10.26;71.67;98768.15;147310;1148;104738;-79
2021/05/02 07:27:41;;;;;;;17.02;12.47;;;;;;;10.28;71.81;98760.78;147719;1147;104649;-76
2021/05/02 07:30:44;;;;;;;19.92;13.38;;;;;;;10.25;72.25;98752.34;147711;1147;104444;-76
2021/05/02 07:33:47;;;;;;;18.95;13.85;;;;;;;10.21;72.31;98752.70;147613;1147;104555;-77
2021/05/02 07:36:50;;;;;;;19.23;13.98;;;;;;;10.17;72.91;98747.94;147430;1147;104565;-78
2021/05/02 07:39:53;;;;;;;18.60;12.95;;;;;;;10.10;72.40;98774.50;147698;1147;104738;-76
2021/05/02 07:42:57;;;;;;;17.30;11.30;;;;;;;10.10;72.81;98814.48;147895;1147;104513;-76
2021/05/02 07:46:00;;;;;;;18.12;11.83;;;;;;;10.15;72.63;98804.09;148094;1147;104479;-77
2021/05/02 07:49:04;;;;;;;15.30;11.80;;;;;;;10.21;72.93;98803.34;147682;1147;104565;-77
2021/05/02 07:52:07;;;;;;;19.85;14.70;;;;;;;10.25;72.41;98771.00;147572;1147;104476;-78
2021/05/02 07:55:12;;;;;;;18.90;13.30;;;;;;;10.26;72.24;98796.63;147679;1148;104556;-77
2021/05/02 07:58:15;;;;;;;22.35;14.95;;;;;;;10.20;72.63;98801.70;147638;1147;104553;-76
2021/05/02 08:01:18;;;;;;;24.20;15.93;;;;;;;10.22;73.06;98794.34;147631;1147;104461;-75
2021/05/02 08:04:22;;;;;;;25.12;17.52;;;;;;;10.19;72.22;98768.05;147718;1147;104530;-77
2021/05/02 08:07:25;;;;;;;20.77;15.57;;;;;;;10.03;73.10;98746.97;147407;1148;104575;-79
2021/05/02 08:10:28;;;;;;;18.57;13.47;;;;;;;10.00;73.52;98748.14;147217;1147;104521;-79
2021/05/02 08:13:32;;;;;;;61.73;32.37;;;;;;;9.98;73.32;98768.01;147564;1147;104512;-77
2021/05/02 08:16:35;;;;;;;107.32;55.43;;;;;;;9.95;73.77;98779.02;147272;1147;104578;-77
2021/05/02 08:19:38;;;;;;;38.03;21.77;;;;;;;9.94;73.85;98801.36;147682;1147;104450;-76
2021/05/02 08:22:41;;;;;;;41.88;21.95;;;;;;;10.02;73.36;98814.58;147936;1147;104553;-77
2021/05/02 08:25:44;;;;;;;27.67;17.33;;;;;;;10.08;73.58;98805.84;147624;1147;104566;-79
2021/05/02 08:28:47;;;;;;;112.67;67.93;;;;;;;10.07;73.34;98766.89;147589;1147;104495;-79
2021/05/02 08:31:51;;;;;;;42.60;27.93;;;;;;;10.11;73.86;98724.71;147780;1147;104453;-78
2021/05/02 08:34:54;;;;;;;27.30;18.92;;;;;;;9.94;74.46;98729.42;147808;1147;104450;-79
2021/05/02 08:37:57;;;;;;;20.17;14.67;;;;;;;9.81;74.31;98748.72;147764;1148;104541;-78
2021/05/02 08:41:01;;;;;;;22.20;13.70;;;;;;;9.79;74.94;98724.93;147768;1147;104529;-80
2021/05/02 08:44:06;;;;;;;30.80;21.33;;;;;;;9.82;75.26;98700.59;147776;1147;104460;-79
2021/05/02 08:47:11;;;;;;;29.05;19.30;;;;;;;9.78;76.52;98677.19;147762;1148;104477;-79
2021/05/02 08:50:15;;;;;;;23.45;16.32;;;;;;;9.74;75.97;98673.25;147313;1147;104574;-79
2021/05/02 08:53:18;;;;;;;25.32;17.95;;;;;;;9.65;76.41;98661.87;147757;1147;104560;-79
2021/05/02 08:56:22;;;;;;;21.33;14.90;;;;;;;9.63;76.86;98653.23;147711;1146;104565;-78
2021/05/02 08:59:25;;;;;;;18.03;12.80;;;;;;;9.66;75.88;98647.55;147731;1147;104568;-79
2021/05/02 09:02:31;;;;;;;21.60;15.15;;;;;;;9.68;75.13;98629.55;147731;1147;104479;-80
2021/05/02 09:05:44;;;;;;;23.40;16.07;;;;;;;9.74;75.70;98618.14;146947;1148;104508;-80
2021/05/02 09:08:48;;;;;;;23.50;17.10;;;;;;;9.77;75.42;98609.75;147770;1147;104447;-78
2021/05/02 09:11:54;;;;;;;24.27;18.05;;;;;;;9.77;75.45;98600.95;147720;1147;104509;-79
2021/05/02 09:14:57;;;;;;;22.22;14.55;;;;;;;9.80;75.88;98595.25;147723;1147;104470;-77
2021/05/02 09:18:09;;;;;;;17.67;12.45;;;;;;;9.85;75.33;98584.02;147690;1147;104447;-77
2021/05/02 09:21:18;;;;;;;21.37;14.97;;;;;;;9.92;75.62;98582.25;147572;1147;104569;-80
2021/05/02 09:24:27;;;;;;;16.95;12.82;;;;;;;9.95;75.71;98571.20;147736;1147;104489;-78
2021/05/02 09:27:30;;;;;;;18.50;13.80;;;;;;;9.97;75.56;98558.54;147755;1147;104572;-78
2021/05/02 09:30:35;;;;;;;20.12;16.00;;;;;;;9.97;75.10;98551.36;147726;1147;104482;-78
2021/05/02 09:33:38;;;;;;;17.60;12.70;;;;;;;9.97;75.83;98548.70;147793;1147;104495;-79
2021/05/02 09:36:55;;;;;;;14.70;10.72;;;;;;;10.02;75.48;98529.45;147690;1147;105663;-77
2021/05/02 09:40:00;;;;;;;13.62;11.28;;;;;;;10.11;74.78;98522.16;147454;1147;104555;-78
2021/05/02 09:43:03;;;;;;;16.33;12.13;;;;;;;10.17;75.50;98516.88;147647;1148;104607;-78
2021/05/02 09:46:27;;;;;;;15.90;12.70;;;;;;;10.20;75.30;98505.84;147734;1147;104520;-81
2021/05/02 09:49:30;;;;;;;16.35;13.08;;;;;;;10.25;74.67;98509.76;147746;1146;104473;-81
2021/05/02 09:52:49;;;;;;;14.37;10.43;;;;;;;10.26;75.12;98496.24;147675;1147;104483;-79
2021/05/02 09:55:52;;;;;;;13.53;9.43;;;;;;;10.33;75.32;98496.30;147497;1147;104512;-79
2021/05/02 09:58:55;;;;;;;14.83;10.70;;;;;;;10.39;75.23;98487.52;147269;1147;104611;-79
2021/05/02 10:02:27;;;;;;;17.43;11.70;;;;;;;10.40;74.94;98489.19;147206;1147;104477;-79
2021/05/02 10:05:31;;;;;;;13.67;10.80;;;;;;;10.40;74.67;98473.19;147191;1147;104572;-78
2021/05/02 10:08:35;;;;;;;13.03;10.65;;;;;;;10.37;74.77;98479.74;147316;1147;104485;-82
2021/05/02 10:11:38;;;;;;;15.23;10.67;;;;;;;10.31;75.17;98490.34;147300;1147;104676;-80
2021/05/02 10:14:43;;;;;;;12.03;9.73;;;;;;;10.30;75.22;98464.70;147163;1147;104724;-79
2021/05/02 10:17:48;;;;;;;14.15;11.38;;;;;;;10.28;74.95;98474.73;147226;1147;104532;-80
2021/05/02 10:20:53;;;;;;;18.15;13.60;;;;;;;10.31;75.40;98466.36;147638;1147;104522;-78
2021/05/02 10:23:56;;;;;;;15.48;12.30;;;;;;;10.34;75.83;98449.98;147634;1147;104474;-79
2021/05/02 10:26:59;;;;;;;14.55;11.97;;;;;;;10.32;74.91;98449.36;147491;1148;104575;-81
2021/05/02 10:30:03;;;;;;;17.12;13.65;;;;;;;10.31;74.92;98458.36;147458;1147;104505;-79
2021/05/02 10:33:09;;;;;;;19.57;13.23;;;;;;;10.32;75.14;98457.35;147195;1147;104512;-80
2021/05/02 10:36:18;;;;;;;17.27;12.70;;;;;;;10.37;75.39;98439.75;147221;1147;104564;-80
2021/05/02 10:39:21;;;;;;;18.80;14.27;;;;;;;10.40;75.58;98434.01;147474;1147;104479;-80
2021/05/02 10:42:44;;;;;;;15.85;12.63;;;;;;;10.38;75.44;98427.23;147406;1148;104588;-79
2021/05/02 10:45:48;;;;;;;20.50;14.78;;;;;;;10.36;75.62;98421.28;147335;1147;104602;-79
2021/05/02 10:48:51;;;;;;;21.75;15.10;;;;;;;10.31;75.84;98410.38;147569;1148;104565;-79
2021/05/02 10:51:55;;;;;;;76.17;45.90;;;;;;;10.30;75.52;98400.72;147593;1147;104454;-81
2021/05/02 10:55:10;;;;;;;27.97;21.63;;;;;;;10.32;76.21;98396.86;147717;1147;104477;-80
2021/05/02 10:58:21;;;;;;;22.83;17.27;;;;;;;10.37;75.52;98398.91;147506;1147;104452;-79
2021/05/02 11:01:27;;;;;;;21.68;16.55;;;;;;;10.43;75.06;98397.30;147231;1147;104569;-79
2021/05/02 11:04:57;;;;;;;20.55;16.17;;;;;;;10.44;75.53;98388.30;147613;1147;104538;-82
2021/05/02 11:08:00;;;;;;;18.45;14.18;;;;;;;10.43;75.32;98398.15;147484;1147;104572;-79
2021/05/02 11:11:03;;;;;;;15.25;11.50;;;;;;;10.43;75.24;98371.48;147707;1147;104474;-79
2021/05/02 11:14:35;;;;;;;18.17;14.50;;;;;;;10.43;75.37;98344.83;147736;1147;104578;-78
2021/05/02 11:17:41;;;;;;;19.07;15.00;;;;;;;10.41;75.57;98349.50;147741;1146;104591;-81
2021/05/02 11:20:48;;;;;;;17.50;12.82;;;;;;;10.45;75.94;98364.11;147667;1148;104572;-79
2021/05/02 11:24:00;;;;;;;17.48;11.03;;;;;;;10.48;75.37;98369.03;147550;1147;104495;-79
2021/05/02 11:27:07;;;;;;;19.02;13.58;;;;;;;10.56;75.51;98368.84;147713;1147;104488;-79
2021/05/02 11:30:23;;;;;;;20.95;17.30;;;;;;;10.63;75.98;98360.08;147728;1147;104470;-79
2021/05/02 11:33:26;;;;;;;17.00;13.00;;;;;;;10.64;75.24;98346.52;147673;1147;104722;-78
2021/05/02 11:36:39;;;;;;;17.10;13.10;;;;;;;10.68;75.26;98341.60;147339;1145;104445;-79
2021/05/02 11:39:43;;;;;;;20.08;15.10;;;;;;;10.72;74.91;98337.50;147602;1147;104458;-79
2021/05/02 11:42:53;;;;;;;23.37;16.30;;;;;;;10.73;75.48;98331.98;147362;1148;104556;-79
2021/05/02 11:45:58;;;;;;;17.87;12.50;;;;;;;10.78;75.75;98321.53;147757;1147;104489;-78
2021/05/02 11:49:01;;;;;;;20.62;15.65;;;;;;;10.84;75.61;98309.23;147756;1147;104597;-81
2021/05/02 11:52:05;;;;;;;16.62;12.47;;;;;;;10.92;75.06;98303.70;147737;1147;104493;-81
2021/05/02 11:55:26;;;;;;;17.85;12.93;;;;;;;10.99;75.57;98301.87;147728;1147;104454;-80
2021/05/02 11:58:29;;;;;;;20.45;16.20;;;;;;;10.99;75.10;98307.20;147714;1147;104469;-79
2021/05/02 12:01:34;;;;;;;15.17;11.27;;;;;;;11.00;75.38;98292.00;147713;1147;104572;-79
2021/05/02 12:04:40;;;;;;;14.85;11.12;;;;;;;11.05;75.41;98297.56;147392;1147;104556;-78
2021/05/02 12:07:44;;;;;;;22.17;15.30;;;;;;;11.16;75.74;98291.62;147556;1147;104569;-78
2021/05/02 12:10:53;;;;;;;23.73;17.55;;;;;;;11.27;75.20;98282.16;147749;1148;104572;-76
2021/05/02 12:13:57;;;;;;;24.90;17.83;;;;;;;11.34;75.82;98285.64;147735;1147;104477;-78
2021/05/02 12:17:01;;;;;;;23.30;16.50;;;;;;;11.31;75.50;98283.38;147769;1147;104578;-78
2021/05/02 12:20:07;;;;;;;20.80;14.33;;;;;;;11.33;74.82;98283.18;147735;1147;104620;-78
2021/05/02 12:23:10;;;;;;;19.43;13.77;;;;;;;11.38;75.64;98286.87;147619;1147;104483;-77
2021/05/02 12:26:15;;;;;;;20.45;14.35;;;;;;;11.56;75.70;98272.06;147625;1146;104563;-79
2021/05/02 12:29:27;;;;;;;19.43;15.17;;;;;;;11.70;75.51;98264.83;147396;1147;104464;-81
2021/05/02 12:32:31;;;;;;;21.12;15.83;;;;;;;11.74;75.00;98272.23;147690;1148;104449;-77
2021/05/02 12:35:34;;;;;;;18.73;14.45;;;;;;;11.70;75.55;98263.00;147372;1147;104559;-77
2021/05/02 12:38:38;;;;;;;24.23;17.67;;;;;;;11.73;75.08;98262.56;147448;1147;104516;-79
2021/05/02 12:41:42;;;;;;;20.27;15.40;;;;;;;11.79;75.30;98269.73;147446;1147;104479;-78
2021/05/02 12:44:53;;;;;;;22.60;15.70;;;;;;;11.84;75.34;98271.80;147522;1147;104494;-78
2021/05/02 12:47:56;;;;;;;18.27;13.50;;;;;;;11.95;75.59;98267.67;147766;1147;104562;-78
2021/05/02 12:51:01;;;;;;;15.20;12.13;;;;;;;12.01;75.09;98272.20;147678;1147;104601;-78
2021/05/02 12:54:10;;;;;;;14.58;11.03;;;;;;;12.04;75.35;98258.39;147794;1147;104614;-78
2021/05/02 12:57:16;;;;;;;12.78;10.10;;;;;;;12.03;75.32;98263.94;147765;1147;104483;-79
2021/05/02 13:00:24;;;;;;;13.15;10.08;;;;;;;12.04;75.81;98265.59;147737;1147;104483;-78
2021/05/02 13:03:32;;;;;;;11.08;9.10;;;;;;;12.02;75.50;98273.82;147739;1147;104450;-81
2021/05/02 13:06:45;;;;;;;13.68;10.25;;;;;;;12.07;76.07;98278.55;147758;1145;104614;-80
2021/05/02 13:09:49;;;;;;;10.58;8.90;;;;;;;12.02;75.75;98284.52;147801;1147;104614;-78
2021/05/02 13:12:54;;;;;;;8.30;6.92;;;;;;;11.94;75.17;98292.77;147766;1147;104613;-81
2021/05/02 13:15:57;;;;;;;8.00;6.20;;;;;;;11.91;75.18;98295.85;147707;1147;104466;-79
2021/05/02 13:19:01;;;;;;;7.55;6.40;;;;;;;11.89;75.58;98287.19;147274;1147;104495;-78
2021/05/02 13:22:18;;;;;;;8.00;6.70;;;;;;;11.91;75.34;98299.37;147732;1148;104623;-78
2021/05/02 13:25:23;;;;;;;8.23;6.93;;;;;;;11.97;75.35;98295.84;147732;1147;104528;-78
2021/05/02 13:28:26;;;;;;;7.35;6.55;;;;;;;11.97;75.43;98293.17;147762;1147;104568;-80
2021/05/02 13:31:55;;;;;;;6.10;5.20;;;;;;;11.92;75.48;98290.30;147680;1148;104572;-78
2021/05/02 13:34:58;;;;;;;7.33;5.55;;;;;;;11.94;74.87;98300.79;147668;1147;104429;-78
2021/05/02 13:38:02;;;;;;;5.78;5.00;;;;;;;11.94;75.12;98292.77;147486;1147;104620;-77
2021/05/02 13:41:06;;;;;;;6.90;5.90;;;;;;;11.96;74.88;98304.07;147558;1148;104633;-80
2021/05/02 13:44:11;;;;;;;7.63;6.20;;;;;;;11.96;75.18;98301.40;147711;1147;104568;-78
2021/05/02 13:47:14;;;;;;;7.00;5.67;;;;;;;11.95;74.87;98308.60;147689;1147;104476;-79
2021/05/02 13:50:18;;;;;;;6.53;5.23;;;;;;;11.87;74.78;98300.76;147772;1147;104499;-78
2021/05/02 13:53:22;;;;;;;5.40;4.80;;;;;;;11.84;74.77;98305.73;147680;1147;104643;-79
2021/05/02 13:56:25;;;;;;;7.37;5.00;;;;;;;11.76;74.62;98304.91;147642;1147;104487;-78
2021/05/02 13:59:28;;;;;;;6.65;5.22;;;;;;;11.73;75.31;98307.98;147755;1147;104904;-77